sensor_id;sensor_type;location;lat;lon;timestamp;pressure;altitude;pressure_sealevel;temperature;humidity
51603;BME280;37954;51.980;5.850;2023-05-23T00:03:33;101486.47;;;16.72;75.41
51603;BME280;37954;51.980;5.850;2023-05-23T00:07:45;101468.22;;;16.67;75.54
51603;BME280;37954;51.980;5.850;2023-05-23T00:11:57;101480.97;;;16.67;75.79
51603;BME280;37954;51.980;5.850;2023-05-23T00:16:09;101481.53;;;16.69;75.85
51603;BME280;37954;51.980;5.850;2023-05-23T00:20:21;101471.94;;;16.50;75.97
51603;BME280;37954;51.980;5.850;2023-05-23T00:24:33;101476.91;;;16.53;76.29
51603;BME280;37954;51.980;5.850;2023-05-23T00:28:45;101482.56;;;16.51;76.68
51603;BME280;37954;51.980;5.850;2023-05-23T00:32:57;101476.03;;;16.35;76.85
51603;BME280;37954;51.980;5.850;2023-05-23T00:37:09;101490.31;;;16.31;77.60
51603;BME280;37954;51.980;5.850;2023-05-23T00:41:22;101474.69;;;16.21;78.11
51603;BME280;37954;51.980;5.850;2023-05-23T00:45:36;101485.31;;;16.23;78.02
51603;BME280;37954;51.980;5.850;2023-05-23T00:49:48;101495.69;;;16.14;79.49
51603;BME280;37954;51.980;5.850;2023-05-23T00:54:01;101495.13;;;16.12;80.17
51603;BME280;37954;51.980;5.850;2023-05-23T00:58:15;101487.84;;;16.01;80.42
51603;BME280;37954;51.980;5.850;2023-05-23T01:02:30;101507.53;;;16.08;80.42
51603;BME280;37954;51.980;5.850;2023-05-23T01:06:44;101502.03;;;15.91;81.19
51603;BME280;37954;51.980;5.850;2023-05-23T01:11:00;101487.44;;;15.81;82.00
51603;BME280;37954;51.980;5.850;2023-05-23T01:15:17;101497.16;;;15.93;81.57
51603;BME280;37954;51.980;5.850;2023-05-23T01:28:41;101501.38;;;15.73;81.85
51603;BME280;37954;51.980;5.850;2023-05-23T01:32:55;101493.00;;;15.62;81.71
51603;BME280;37954;51.980;5.850;2023-05-23T01:37:09;101521.84;;;15.80;82.25
51603;BME280;37954;51.980;5.850;2023-05-23T01:41:22;101511.97;;;15.74;82.24
51603;BME280;37954;51.980;5.850;2023-05-23T01:45:34;101515.34;;;15.81;81.90
51603;BME280;37954;51.980;5.850;2023-05-23T01:49:46;101527.59;;;15.84;81.93
51603;BME280;37954;51.980;5.850;2023-05-23T01:53:59;101523.72;;;15.80;81.75
51603;BME280;37954;51.980;5.850;2023-05-23T01:58:11;101538.31;;;15.79;82.09
51603;BME280;37954;51.980;5.850;2023-05-23T02:02:23;101514.00;;;15.55;82.30
51603;BME280;37954;51.980;5.850;2023-05-23T02:06:35;101544.00;;;15.65;82.57
51603;BME280;37954;51.980;5.850;2023-05-23T02:10:47;101534.59;;;15.56;82.71
51603;BME280;37954;51.980;5.850;2023-05-23T02:14:58;101535.19;;;15.58;82.80
51603;BME280;37954;51.980;5.850;2023-05-23T02:19:10;101528.56;;;15.54;82.76
51603;BME280;37954;51.980;5.850;2023-05-23T02:23:22;101545.28;;;15.63;82.89
51603;BME280;37954;51.980;5.850;2023-05-23T02:27:34;101549.28;;;15.60;83.16
51603;BME280;37954;51.980;5.850;2023-05-23T02:31:46;101537.41;;;15.50;83.13
51603;BME280;37954;51.980;5.850;2023-05-23T02:35:58;101563.06;;;15.59;83.33
51603;BME280;37954;51.980;5.850;2023-05-23T02:40:10;101568.84;;;15.62;83.12
51603;BME280;37954;51.980;5.850;2023-05-23T02:44:22;101540.84;;;15.57;82.96
51603;BME280;37954;51.980;5.850;2023-05-23T02:48:34;101568.75;;;15.69;82.59
51603;BME280;37954;51.980;5.850;2023-05-23T02:52:46;101566.97;;;15.63;82.83
51603;BME280;37954;51.980;5.850;2023-05-23T02:56:59;101572.50;;;15.68;83.08
51603;BME280;37954;51.980;5.850;2023-05-23T03:01:12;101564.50;;;15.61;83.36
51603;BME280;37954;51.980;5.850;2023-05-23T03:05:24;101566.72;;;15.64;82.94
51603;BME280;37954;51.980;5.850;2023-05-23T03:09:36;101577.69;;;15.70;82.67
51603;BME280;37954;51.980;5.850;2023-05-23T03:13:48;101569.91;;;15.61;83.19
51603;BME280;37954;51.980;5.850;2023-05-23T03:18:00;101576.38;;;15.60;83.07
51603;BME280;37954;51.980;5.850;2023-05-23T03:22:12;101560.94;;;15.38;83.19
51603;BME280;37954;51.980;5.850;2023-05-23T03:26:23;101575.63;;;15.42;83.08
51603;BME280;37954;51.980;5.850;2023-05-23T03:30:35;101578.84;;;15.39;82.91
51603;BME280;37954;51.980;5.850;2023-05-23T03:34:47;101568.13;;;15.32;82.57
51603;BME280;37954;51.980;5.850;2023-05-23T03:38:59;101580.13;;;15.48;82.91
51603;BME280;37954;51.980;5.850;2023-05-23T03:43:11;101581.41;;;15.45;82.15
51603;BME280;37954;51.980;5.850;2023-05-23T03:47:26;101576.97;;;15.39;82.03
51603;BME280;37954;51.980;5.850;2023-05-23T03:51:40;101585.19;;;15.44;81.84
51603;BME280;37954;51.980;5.850;2023-05-23T03:55:52;101579.53;;;15.46;81.08
51603;BME280;37954;51.980;5.850;2023-05-23T04:00:05;101595.25;;;15.55;81.01
51603;BME280;37954;51.980;5.850;2023-05-23T04:04:28;101589.19;;;15.53;80.55
51603;BME280;37954;51.980;5.850;2023-05-23T04:08:40;101602.41;;;15.61;80.25
51603;BME280;37954;51.980;5.850;2023-05-23T04:12:52;101588.78;;;15.56;80.10
51603;BME280;37954;51.980;5.850;2023-05-23T04:17:04;101599.47;;;15.63;79.76
51603;BME280;37954;51.980;5.850;2023-05-23T04:21:16;101613.72;;;15.70;79.63
51603;BME280;37954;51.980;5.850;2023-05-23T04:25:41;101608.53;;;15.69;79.49
51603;BME280;37954;51.980;5.850;2023-05-23T04:29:58;101621.03;;;15.70;79.30
51603;BME280;37954;51.980;5.850;2023-05-23T04:34:11;101615.94;;;15.61;79.51
51603;BME280;37954;51.980;5.850;2023-05-23T04:38:23;101633.25;;;15.60;79.41
51603;BME280;37954;51.980;5.850;2023-05-23T04:42:36;101638.69;;;15.60;79.37
51603;BME280;37954;51.980;5.850;2023-05-23T04:47:20;101648.00;;;15.64;79.23
51603;BME280;37954;51.980;5.850;2023-05-23T04:51:52;101640.22;;;15.56;79.16
51603;BME280;37954;51.980;5.850;2023-05-23T04:56:11;101663.78;;;15.68;79.15
51603;BME280;37954;51.980;5.850;2023-05-23T05:00:23;101656.59;;;15.61;79.02
51603;BME280;37954;51.980;5.850;2023-05-23T05:04:35;101652.66;;;15.46;78.86
51603;BME280;37954;51.980;5.850;2023-05-23T05:08:49;101674.28;;;15.34;79.57
51603;BME280;37954;51.980;5.850;2023-05-23T05:13:00;101669.53;;;15.18;79.64
51603;BME280;37954;51.980;5.850;2023-05-23T05:17:19;101676.16;;;15.22;79.46
51603;BME280;37954;51.980;5.850;2023-05-23T05:21:50;101687.91;;;15.16;79.56
51603;BME280;37954;51.980;5.850;2023-05-23T05:26:02;101690.38;;;15.17;79.01
51603;BME280;37954;51.980;5.850;2023-05-23T05:30:15;101687.84;;;15.04;79.30
51603;BME280;37954;51.980;5.850;2023-05-23T05:34:33;101687.34;;;14.95;79.45
51603;BME280;37954;51.980;5.850;2023-05-23T05:38:46;101709.59;;;14.97;79.67
51603;BME280;37954;51.980;5.850;2023-05-23T05:43:00;101689.03;;;14.78;79.78
51603;BME280;37954;51.980;5.850;2023-05-23T05:47:12;101721.19;;;14.86;79.83
51603;BME280;37954;51.980;5.850;2023-05-23T05:51:25;101714.25;;;14.72;79.62
51603;BME280;37954;51.980;5.850;2023-05-23T05:55:37;101717.28;;;14.64;79.82
51603;BME280;37954;51.980;5.850;2023-05-23T05:59:48;101730.59;;;14.66;79.69
51603;BME280;37954;51.980;5.850;2023-05-23T06:04:01;101747.94;;;14.76;79.51
51603;BME280;37954;51.980;5.850;2023-05-23T06:08:13;101722.88;;;14.69;79.29
51603;BME280;37954;51.980;5.850;2023-05-23T06:12:26;101724.13;;;14.67;78.80
51603;BME280;37954;51.980;5.850;2023-05-23T06:16:38;101754.09;;;14.65;78.95
51603;BME280;37954;51.980;5.850;2023-05-23T06:20:50;101746.44;;;14.62;78.29
51603;BME280;37954;51.980;5.850;2023-05-23T06:25:05;101761.63;;;14.63;77.32
51603;BME280;37954;51.980;5.850;2023-05-23T06:29:17;101753.00;;;14.54;76.76
51603;BME280;37954;51.980;5.850;2023-05-23T06:33:29;101779.50;;;14.64;76.03
51603;BME280;37954;51.980;5.850;2023-05-23T06:37:41;101765.06;;;14.52;75.58
51603;BME280;37954;51.980;5.850;2023-05-23T06:41:56;101786.94;;;14.69;74.63
51603;BME280;37954;51.980;5.850;2023-05-23T06:46:08;101783.78;;;14.72;73.70
51603;BME280;37954;51.980;5.850;2023-05-23T06:50:19;101792.25;;;14.75;73.24
51603;BME280;37954;51.980;5.850;2023-05-23T06:54:33;101778.91;;;14.80;71.89
51603;BME280;37954;51.980;5.850;2023-05-23T06:58:45;101794.81;;;15.07;70.87
51603;BME280;37954;51.980;5.850;2023-05-23T07:02:58;101785.38;;;15.27;68.99
51603;BME280;37954;51.980;5.850;2023-05-23T07:07:14;101796.75;;;15.66;66.82
51603;BME280;37954;51.980;5.850;2023-05-23T07:11:27;101769.72;;;17.23;65.28
51603;BME280;37954;51.980;5.850;2023-05-23T07:15:42;101783.19;;;18.41;59.95
51603;BME280;37954;51.980;5.850;2023-05-23T07:19:57;101795.88;;;19.57;58.63
51603;BME280;37954;51.980;5.850;2023-05-23T07:24:10;101808.22;;;20.33;54.62
51603;BME280;37954;51.980;5.850;2023-05-23T07:28:23;101803.25;;;20.57;52.41
51603;BME280;37954;51.980;5.850;2023-05-23T07:32:36;101811.53;;;20.72;51.13
51603;BME280;37954;51.980;5.850;2023-05-23T07:36:50;101822.97;;;20.00;50.90
51603;BME280;37954;51.980;5.850;2023-05-23T07:41:03;101827.50;;;19.14;50.63
51603;BME280;37954;51.980;5.850;2023-05-23T07:45:23;101819.22;;;18.65;51.89
51603;BME280;37954;51.980;5.850;2023-05-23T07:49:35;101811.22;;;18.42;52.61
51603;BME280;37954;51.980;5.850;2023-05-23T07:53:48;101834.53;;;18.55;53.71
51603;BME280;37954;51.980;5.850;2023-05-23T07:58:03;101827.22;;;18.38;53.75
51603;BME280;37954;51.980;5.850;2023-05-23T08:02:16;101836.19;;;17.89;54.17
51603;BME280;37954;51.980;5.850;2023-05-23T08:06:29;101838.44;;;17.52;55.71
51603;BME280;37954;51.980;5.850;2023-05-23T08:10:45;101835.56;;;16.90;57.48
51603;BME280;37954;51.980;5.850;2023-05-23T08:15:05;101843.34;;;16.86;58.66
51603;BME280;37954;51.980;5.850;2023-05-23T08:19:24;101854.50;;;17.25;58.66
51603;BME280;37954;51.980;5.850;2023-05-23T08:23:36;101814.34;;;17.55;58.22
51603;BME280;37954;51.980;5.850;2023-05-23T08:27:48;101841.63;;;18.05;57.35
51603;BME280;37954;51.980;5.850;2023-05-23T08:32:20;101871.16;;;18.14;56.54
51603;BME280;37954;51.980;5.850;2023-05-23T08:36:33;101867.13;;;17.59;56.31
51603;BME280;37954;51.980;5.850;2023-05-23T08:40:49;101882.63;;;17.59;57.19
51603;BME280;37954;51.980;5.850;2023-05-23T08:45:07;101862.19;;;18.13;56.28
51603;BME280;37954;51.980;5.850;2023-05-23T08:49:21;101869.53;;;19.23;53.81
51603;BME280;37954;51.980;5.850;2023-05-23T08:53:35;101897.84;;;20.14;50.44
51603;BME280;37954;51.980;5.850;2023-05-23T08:57:50;101879.63;;;20.20;48.97
51603;BME280;37954;51.980;5.850;2023-05-23T09:02:25;101889.28;;;20.01;47.63
51603;BME280;37954;51.980;5.850;2023-05-23T09:06:46;101893.63;;;19.75;47.65
51603;BME280;37954;51.980;5.850;2023-05-23T09:10:58;101894.94;;;19.67;47.59
51603;BME280;37954;51.980;5.850;2023-05-23T09:15:14;101903.50;;;20.35;46.92
51603;BME280;37954;51.980;5.850;2023-05-23T09:19:29;101899.06;;;20.29;45.73
51603;BME280;37954;51.980;5.850;2023-05-23T09:23:50;101906.72;;;19.73;45.76
51603;BME280;37954;51.980;5.850;2023-05-23T09:28:02;101898.97;;;19.21;46.24
51603;BME280;37954;51.980;5.850;2023-05-23T09:32:20;101912.84;;;19.20;47.00
51603;BME280;37954;51.980;5.850;2023-05-23T09:36:32;101907.00;;;19.33;46.48
51603;BME280;37954;51.980;5.850;2023-05-23T09:40:47;101897.50;;;19.57;46.59
51603;BME280;37954;51.980;5.850;2023-05-23T09:44:59;101915.63;;;20.17;44.46
51603;BME280;37954;51.980;5.850;2023-05-23T09:49:15;101912.28;;;21.16;42.79
51603;BME280;37954;51.980;5.850;2023-05-23T09:53:32;101922.28;;;21.47;40.99
51603;BME280;37954;51.980;5.850;2023-05-23T09:57:44;101918.03;;;21.82;39.70
51603;BME280;37954;51.980;5.850;2023-05-23T10:01:56;101928.56;;;22.46;38.98
51603;BME280;37954;51.980;5.850;2023-05-23T10:10:34;101925.41;;;23.98;37.24
51603;BME280;37954;51.980;5.850;2023-05-23T10:15:03;101907.91;;;24.33;36.05
51603;BME280;37954;51.980;5.850;2023-05-23T10:19:47;101902.19;;;24.24;36.21
51603;BME280;37954;51.980;5.850;2023-05-23T10:24:03;101926.88;;;23.85;35.69
51603;BME280;37954;51.980;5.850;2023-05-23T10:28:15;101923.19;;;24.05;35.22
51603;BME280;37954;51.980;5.850;2023-05-23T10:32:27;101912.41;;;24.53;34.95
51603;BME280;37954;51.980;5.850;2023-05-23T10:37:05;101927.53;;;24.79;34.36
51603;BME280;37954;51.980;5.850;2023-05-23T10:41:24;101919.28;;;24.11;33.97
51603;BME280;37954;51.980;5.850;2023-05-23T10:45:41;101937.03;;;24.29;35.14
51603;BME280;37954;51.980;5.850;2023-05-23T10:49:54;101904.63;;;24.60;34.81
51603;BME280;37954;51.980;5.850;2023-05-23T10:54:10;101936.88;;;24.49;34.23
51603;BME280;37954;51.980;5.850;2023-05-23T10:58:22;101937.88;;;24.24;33.54
51603;BME280;37954;51.980;5.850;2023-05-23T11:02:34;101921.66;;;24.28;33.88
51603;BME280;37954;51.980;5.850;2023-05-23T11:06:46;101927.75;;;23.76;34.38
51603;BME280;37954;51.980;5.850;2023-05-23T11:11:03;101925.53;;;23.78;34.49
51603;BME280;37954;51.980;5.850;2023-05-23T11:19:27;101928.03;;;24.57;33.16
51603;BME280;37954;51.980;5.850;2023-05-23T11:23:40;101926.94;;;24.58;33.57
51603;BME280;37954;51.980;5.850;2023-05-23T11:27:52;101921.72;;;23.74;33.98
51603;BME280;37954;51.980;5.850;2023-05-23T11:32:11;101931.63;;;24.14;34.01
51603;BME280;37954;51.980;5.850;2023-05-23T11:36:31;101929.56;;;23.95;33.02
51603;BME280;37954;51.980;5.850;2023-05-23T11:40:44;101943.75;;;23.48;33.95
51603;BME280;37954;51.980;5.850;2023-05-23T11:44:57;101918.25;;;23.48;33.97
51603;BME280;37954;51.980;5.850;2023-05-23T11:49:09;101944.19;;;23.81;32.68
51603;BME280;37954;51.980;5.850;2023-05-23T11:53:22;101937.34;;;22.94;34.17
51603;BME280;37954;51.980;5.850;2023-05-23T11:57:39;101924.47;;;22.58;35.56
51603;BME280;37954;51.980;5.850;2023-05-23T12:01:52;101927.75;;;22.86;36.10
51603;BME280;37954;51.980;5.850;2023-05-23T12:06:04;101931.59;;;22.65;35.23
51603;BME280;37954;51.980;5.850;2023-05-23T12:10:16;101937.59;;;22.51;35.28
51603;BME280;37954;51.980;5.850;2023-05-23T12:14:28;101948.56;;;22.36;34.79
51603;BME280;37954;51.980;5.850;2023-05-23T12:18:41;101949.25;;;21.86;35.81
51603;BME280;37954;51.980;5.850;2023-05-23T12:22:55;101935.59;;;21.96;35.96
51603;BME280;37954;51.980;5.850;2023-05-23T12:27:07;101959.53;;;22.31;34.62
51603;BME280;37954;51.980;5.850;2023-05-23T12:31:21;101934.03;;;22.36;34.56
51603;BME280;37954;51.980;5.850;2023-05-23T12:35:33;101951.00;;;22.17;35.13
51603;BME280;37954;51.980;5.850;2023-05-23T12:39:45;101959.47;;;22.11;35.44
51603;BME280;37954;51.980;5.850;2023-05-23T12:43:57;101961.97;;;22.53;34.68
51603;BME280;37954;51.980;5.850;2023-05-23T12:48:08;101967.97;;;22.19;34.55
51603;BME280;37954;51.980;5.850;2023-05-23T12:52:20;101955.19;;;21.63;34.80
51603;BME280;37954;51.980;5.850;2023-05-23T12:56:32;101960.88;;;21.51;35.21
51603;BME280;37954;51.980;5.850;2023-05-23T13:00:44;101972.25;;;21.28;35.63
51603;BME280;37954;51.980;5.850;2023-05-23T13:04:56;101958.84;;;21.26;35.98
51603;BME280;37954;51.980;5.850;2023-05-23T13:09:07;101951.66;;;21.62;36.26
51603;BME280;37954;51.980;5.850;2023-05-23T13:13:19;101953.25;;;21.58;35.69
51603;BME280;37954;51.980;5.850;2023-05-23T13:17:31;101957.31;;;21.45;36.49
51603;BME280;37954;51.980;5.850;2023-05-23T13:21:43;101966.34;;;21.51;36.05
51603;BME280;37954;51.980;5.850;2023-05-23T13:25:59;101953.53;;;21.09;36.63
51603;BME280;37954;51.980;5.850;2023-05-23T13:30:11;101970.50;;;20.79;37.05
51603;BME280;37954;51.980;5.850;2023-05-23T13:34:22;101969.81;;;20.57;37.07
51603;BME280;37954;51.980;5.850;2023-05-23T13:38:34;101973.25;;;20.79;35.99
51603;BME280;37954;51.980;5.850;2023-05-23T13:42:48;101977.94;;;20.84;36.55
51603;BME280;37954;51.980;5.850;2023-05-23T13:47:14;101983.03;;;20.43;38.67
51603;BME280;37954;51.980;5.850;2023-05-23T13:51:26;101982.59;;;20.03;39.92
51603;BME280;37954;51.980;5.850;2023-05-23T13:55:38;101978.22;;;20.02;40.77
51603;BME280;37954;51.980;5.850;2023-05-23T13:59:49;101963.38;;;19.93;41.07
51603;BME280;37954;51.980;5.850;2023-05-23T14:04:01;101975.44;;;19.97;39.65
51603;BME280;37954;51.980;5.850;2023-05-23T14:08:15;101974.41;;;20.03;38.94
51603;BME280;37954;51.980;5.850;2023-05-23T14:12:27;101962.69;;;20.02;38.50
51603;BME280;37954;51.980;5.850;2023-05-23T14:16:39;101987.47;;;20.28;38.77
51603;BME280;37954;51.980;5.850;2023-05-23T14:20:51;101988.34;;;20.55;38.46
51603;BME280;37954;51.980;5.850;2023-05-23T14:25:03;101975.09;;;20.15;39.15
51603;BME280;37954;51.980;5.850;2023-05-23T14:29:15;101989.53;;;20.37;39.11
51603;BME280;37954;51.980;5.850;2023-05-23T14:33:27;101997.88;;;20.04;39.56
51603;BME280;37954;51.980;5.850;2023-05-23T14:37:39;101957.47;;;19.74;39.99
51603;BME280;37954;51.980;5.850;2023-05-23T14:41:51;101987.91;;;19.93;40.63
51603;BME280;37954;51.980;5.850;2023-05-23T14:46:03;101978.91;;;19.92;39.02
51603;BME280;37954;51.980;5.850;2023-05-23T14:50:15;101988.81;;;19.76;39.19
51603;BME280;37954;51.980;5.850;2023-05-23T14:54:27;101970.97;;;19.47;38.34
51603;BME280;37954;51.980;5.850;2023-05-23T14:58:38;101971.59;;;19.32;38.58
51603;BME280;37954;51.980;5.850;2023-05-23T15:02:56;101981.28;;;19.62;38.49
51603;BME280;37954;51.980;5.850;2023-05-23T15:07:07;101985.75;;;19.95;38.09
51603;BME280;37954;51.980;5.850;2023-05-23T15:11:20;101993.59;;;19.86;38.47
51603;BME280;37954;51.980;5.850;2023-05-23T15:15:32;101997.00;;;19.55;38.88
51603;BME280;37954;51.980;5.850;2023-05-23T15:19:48;101983.31;;;19.33;39.51
51603;BME280;37954;51.980;5.850;2023-05-23T15:23:59;101975.31;;;19.26;39.44
51603;BME280;37954;51.980;5.850;2023-05-23T15:28:11;101973.38;;;19.43;39.04
51603;BME280;37954;51.980;5.850;2023-05-23T15:32:24;101982.06;;;19.24;39.40
51603;BME280;37954;51.980;5.850;2023-05-23T15:36:38;102009.78;;;18.82;39.64
51603;BME280;37954;51.980;5.850;2023-05-23T15:40:50;101991.06;;;18.57;39.93
51603;BME280;37954;51.980;5.850;2023-05-23T15:45:05;101986.38;;;18.53;40.57
51603;BME280;37954;51.980;5.850;2023-05-23T15:49:17;101994.84;;;18.68;40.83
51603;BME280;37954;51.980;5.850;2023-05-23T15:53:37;101976.53;;;18.80;41.10
51603;BME280;37954;51.980;5.850;2023-05-23T15:58:09;101966.78;;;19.01;40.68
51603;BME280;37954;51.980;5.850;2023-05-23T16:02:21;101967.75;;;19.11;39.98
51603;BME280;37954;51.980;5.850;2023-05-23T16:06:33;101975.41;;;19.15;39.98
51603;BME280;37954;51.980;5.850;2023-05-23T16:10:45;102004.94;;;19.23;39.03
51603;BME280;37954;51.980;5.850;2023-05-23T16:14:57;101991.06;;;18.86;39.31
51603;BME280;37954;51.980;5.850;2023-05-23T16:19:09;102001.13;;;18.68;39.16
51603;BME280;37954;51.980;5.850;2023-05-23T16:23:20;102005.69;;;18.51;39.46
51603;BME280;37954;51.980;5.850;2023-05-23T16:27:32;101977.16;;;18.25;39.95
51603;BME280;37954;51.980;5.850;2023-05-23T16:31:44;102007.72;;;18.44;40.46
51603;BME280;37954;51.980;5.850;2023-05-23T16:35:56;101993.53;;;18.42;40.69
51603;BME280;37954;51.980;5.850;2023-05-23T16:40:07;101995.75;;;18.45;40.84
51603;BME280;37954;51.980;5.850;2023-05-23T16:44:19;101993.78;;;18.12;40.85
51603;BME280;37954;51.980;5.850;2023-05-23T16:48:31;101978.56;;;17.59;41.70
51603;BME280;37954;51.980;5.850;2023-05-23T16:52:43;101968.63;;;17.53;42.12
51603;BME280;37954;51.980;5.850;2023-05-23T16:56:55;101966.28;;;17.57;42.26
51603;BME280;37954;51.980;5.850;2023-05-23T17:01:08;102001.72;;;17.73;41.98
51603;BME280;37954;51.980;5.850;2023-05-23T17:05:20;101969.47;;;17.54;42.58
51603;BME280;37954;51.980;5.850;2023-05-23T17:09:31;102016.13;;;17.74;42.50
51603;BME280;37954;51.980;5.850;2023-05-23T17:13:43;101994.06;;;17.24;42.64
51603;BME280;37954;51.980;5.850;2023-05-23T17:17:55;102003.53;;;17.10;42.82
51603;BME280;37954;51.980;5.850;2023-05-23T17:22:07;102003.63;;;16.91;43.24
51603;BME280;37954;51.980;5.850;2023-05-23T17:26:19;102006.88;;;16.70;44.48
51603;BME280;37954;51.980;5.850;2023-05-23T17:30:30;102006.69;;;16.53;44.65
51603;BME280;37954;51.980;5.850;2023-05-23T17:34:42;102004.63;;;16.37;44.73
51603;BME280;37954;51.980;5.850;2023-05-23T17:38:54;101998.44;;;16.18;44.69
51603;BME280;37954;51.980;5.850;2023-05-23T17:43:06;101996.16;;;16.15;45.27
51603;BME280;37954;51.980;5.850;2023-05-23T17:47:18;102018.63;;;16.22;45.36
51603;BME280;37954;51.980;5.850;2023-05-23T17:51:31;102027.50;;;16.11;45.30
51603;BME280;37954;51.980;5.850;2023-05-23T17:55:43;102019.50;;;15.86;45.58
51603;BME280;37954;51.980;5.850;2023-05-23T17:59:56;102038.84;;;15.90;45.75
51603;BME280;37954;51.980;5.850;2023-05-23T18:04:07;102033.94;;;15.62;46.16
51603;BME280;37954;51.980;5.850;2023-05-23T18:08:19;102050.88;;;15.57;46.07
51603;BME280;37954;51.980;5.850;2023-05-23T18:12:31;102034.56;;;15.39;46.70
51603;BME280;37954;51.980;5.850;2023-05-23T18:16:43;102038.81;;;15.28;46.26
51603;BME280;37954;51.980;5.850;2023-05-23T18:20:55;102040.66;;;15.10;46.30
51603;BME280;37954;51.980;5.850;2023-05-23T18:25:07;102029.72;;;14.98;47.00
51603;BME280;37954;51.980;5.850;2023-05-23T18:29:19;102048.63;;;15.05;46.84
51603;BME280;37954;51.980;5.850;2023-05-23T18:33:31;102033.38;;;14.85;47.13
51603;BME280;37954;51.980;5.850;2023-05-23T18:37:43;102054.41;;;14.83;47.84
51603;BME280;37954;51.980;5.850;2023-05-23T18:41:56;102034.34;;;14.66;47.83
51603;BME280;37954;51.980;5.850;2023-05-23T18:46:08;102058.63;;;14.73;48.49
51603;BME280;37954;51.980;5.850;2023-05-23T18:50:20;102021.81;;;14.34;49.03
51603;BME280;37954;51.980;5.850;2023-05-23T18:54:32;102056.72;;;14.48;49.49
51603;BME280;37954;51.980;5.850;2023-05-23T18:58:43;102028.94;;;14.21;49.94
51603;BME280;37954;51.980;5.850;2023-05-23T19:02:57;102062.59;;;14.25;50.17
51603;BME280;37954;51.980;5.850;2023-05-23T19:07:09;102062.88;;;14.11;50.55
51603;BME280;37954;51.980;5.850;2023-05-23T19:11:21;102060.03;;;13.99;51.03
51603;BME280;37954;51.980;5.850;2023-05-23T19:15:33;102060.88;;;13.93;51.13
51603;BME280;37954;51.980;5.850;2023-05-23T19:19:45;102072.50;;;13.87;51.28
51603;BME280;37954;51.980;5.850;2023-05-23T19:23:57;102054.06;;;13.71;51.43
51603;BME280;37954;51.980;5.850;2023-05-23T19:28:09;102078.16;;;13.79;51.28
51603;BME280;37954;51.980;5.850;2023-05-23T19:32:21;102086.50;;;13.64;51.63
51603;BME280;37954;51.980;5.850;2023-05-23T19:36:33;102069.72;;;13.36;51.94
51603;BME280;37954;51.980;5.850;2023-05-23T19:40:46;102094.22;;;13.41;52.39
51603;BME280;37954;51.980;5.850;2023-05-23T19:44:58;102086.09;;;13.34;52.39
51603;BME280;37954;51.980;5.850;2023-05-23T19:49:09;102112.50;;;13.45;52.31
51603;BME280;37954;51.980;5.850;2023-05-23T19:53:22;102124.50;;;13.36;52.33
51603;BME280;37954;51.980;5.850;2023-05-23T19:57:34;102122.03;;;13.21;52.78
51603;BME280;37954;51.980;5.850;2023-05-23T20:01:46;102119.28;;;13.08;53.24
51603;BME280;37954;51.980;5.850;2023-05-23T20:05:57;102117.41;;;12.96;53.60
51603;BME280;37954;51.980;5.850;2023-05-23T20:10:09;102136.28;;;12.96;53.73
51603;BME280;37954;51.980;5.850;2023-05-23T20:14:21;102143.53;;;12.88;54.16
51603;BME280;37954;51.980;5.850;2023-05-23T20:18:33;102159.91;;;12.87;54.31
51603;BME280;37954;51.980;5.850;2023-05-23T20:22:45;102143.28;;;12.70;54.64
51603;BME280;37954;51.980;5.850;2023-05-23T20:26:57;102164.84;;;12.70;54.86
51603;BME280;37954;51.980;5.850;2023-05-23T20:31:09;102144.25;;;12.56;54.92
51603;BME280;37954;51.980;5.850;2023-05-23T20:35:21;102125.31;;;12.36;54.99
51603;BME280;37954;51.980;5.850;2023-05-23T20:39:33;102125.50;;;12.35;55.47
51603;BME280;37954;51.980;5.850;2023-05-23T20:43:45;102140.84;;;12.34;55.59
51603;BME280;37954;51.980;5.850;2023-05-23T20:47:57;102145.81;;;12.31;55.43
51603;BME280;37954;51.980;5.850;2023-05-23T20:52:09;102148.25;;;12.19;55.59
51603;BME280;37954;51.980;5.850;2023-05-23T20:56:21;102131.38;;;12.04;55.62
51603;BME280;37954;51.980;5.850;2023-05-23T21:00:33;102150.44;;;12.02;55.96
51603;BME280;37954;51.980;5.850;2023-05-23T21:04:44;102146.00;;;11.88;56.12
51603;BME280;37954;51.980;5.850;2023-05-23T21:08:56;102146.38;;;11.85;56.40
51603;BME280;37954;51.980;5.850;2023-05-23T21:13:08;102155.22;;;11.79;56.45
51603;BME280;37954;51.980;5.850;2023-05-23T21:17:19;102147.47;;;11.69;56.66
51603;BME280;37954;51.980;5.850;2023-05-23T21:21:32;102131.88;;;11.58;56.90
51603;BME280;37954;51.980;5.850;2023-05-23T21:25:43;102147.19;;;11.58;56.90
51603;BME280;37954;51.980;5.850;2023-05-23T21:29:55;102132.16;;;11.42;57.45
51603;BME280;37954;51.980;5.850;2023-05-23T21:34:07;102140.25;;;11.42;57.80
51603;BME280;37954;51.980;5.850;2023-05-23T21:38:34;102151.44;;;11.45;57.79
51603;BME280;37954;51.980;5.850;2023-05-23T21:42:47;102131.38;;;11.27;57.88
51603;BME280;37954;51.980;5.850;2023-05-23T21:46:59;102153.44;;;11.37;58.09
51603;BME280;37954;51.980;5.850;2023-05-23T21:51:11;102134.88;;;11.21;58.17
51603;BME280;37954;51.980;5.850;2023-05-23T21:55:23;102140.44;;;11.19;58.51
51603;BME280;37954;51.980;5.850;2023-05-23T21:59:34;102128.94;;;11.04;58.92
51603;BME280;37954;51.980;5.850;2023-05-23T22:03:46;102142.19;;;11.05;59.00
51603;BME280;37954;51.980;5.850;2023-05-23T22:07:58;102149.59;;;11.03;59.14
51603;BME280;37954;51.980;5.850;2023-05-23T22:12:10;102139.59;;;10.97;59.45
51603;BME280;37954;51.980;5.850;2023-05-23T22:16:22;102150.09;;;10.92;59.64
51603;BME280;37954;51.980;5.850;2023-05-23T22:20:34;102146.06;;;10.81;60.00
51603;BME280;37954;51.980;5.850;2023-05-23T22:24:49;102150.22;;;10.84;60.24